Lafkin, Texas
Current Conditions -  °F | °C
As of 1:50 AM on Wednesday 22 Oct 2014 (Local Time) from KT65 Reporting Station
Broken Clouds Broken Clouds  
Wind Chill: 73°   Ceiling: 8500
Heat Index: 73°   Visibility: 7mi
Dew Point: 69°   Wind: 5mph
Humidity: 90%   Direction: 40°NE
Pressure: 29.94"   Gusts: NA
Location:  26.1795°N, 97.829°W
Report Text: KT65 220650Z AUTO 04004KT 7SM BKN085 23/21 A2994 RMK AO2 T02250207
Loading
Personal Weather Stations






























Interactive Weather Map
Tropical Storm Tracking
New forecast layout! Learn more

10-Day Weather Forecast

Advertisements
Track Severe Weather on mobile